Time;durP1;ratioP1;P1;durP2;ratioP2;P2;SDS_P1;SDS_P2;PMS_P1;PMS_P2;Temp;Humidity;BMP_temperature;BMP_pressure;BME280_temperature;BME280_humidity;BME280_pressure;Samples;Min_cycle;Max_cycle;Signal;HPM_P1;HPM_P2
2022/06/15 00:01:24;;;;;;;4.50;2.27;;;;;;;14.39;53.90;99532.60;1695114;84;21078;-42
2022/06/15 00:03:51;;;;;;;4.70;2.20;;;;;;;14.32;54.12;99528.66;1695264;84;21584;-42
2022/06/15 00:06:26;;;;;;;4.95;2.02;;;;;;;14.24;54.67;99532.48;1695110;84;21587;-42
2022/06/15 00:08:56;;;;;;;3.40;1.77;;;;;;;14.25;54.72;99534.05;1695472;84;20926;-42
2022/06/15 00:11:28;;;;;;;3.95;1.85;;;;;;;14.25;54.66;99535.99;1695255;84;21077;-42
2022/06/15 00:14:00;;;;;;;3.90;1.92;;;;;;;14.24;54.97;99536.57;1695165;84;21105;-42
2022/06/15 00:16:27;;;;;;;3.75;1.60;;;;;;;14.22;55.31;99526.64;1695036;84;22261;-42
2022/06/15 00:18:55;;;;;;;6.10;2.10;;;;;;;14.23;55.93;99528.18;1695050;84;21013;-42
2022/06/15 00:21:22;;;;;;;4.80;1.80;;;;;;;14.23;56.09;99536.97;1694928;84;21112;-42
2022/06/15 00:23:50;;;;;;;3.17;1.70;;;;;;;14.26;56.37;99534.26;1695180;84;21542;-42
2022/06/15 00:26:18;;;;;;;3.42;1.40;;;;;;;14.30;56.25;99526.88;1695400;83;21198;-42
2022/06/15 00:28:45;;;;;;;5.60;1.50;;;;;;;14.31;55.72;99531.17;1697358;84;21349;-42
2022/06/15 00:31:12;;;;;;;4.70;1.85;;;;;;;14.33;55.45;99544.41;1697571;84;21041;-42
2022/06/15 00:33:40;;;;;;;4.95;1.57;;;;;;;14.37;55.76;99548.58;1697516;84;21001;-42
2022/06/15 00:36:10;;;;;;;4.67;1.60;;;;;;;14.38;55.38;99549.55;1697713;84;21087;-42
2022/06/15 00:38:42;;;;;;;3.10;1.60;;;;;;;14.38;55.31;99544.09;1697651;84;21836;-42
2022/06/15 00:41:16;;;;;;;5.80;1.70;;;;;;;14.38;55.20;99550.16;1697693;84;20966;-42
2022/06/15 00:43:47;;;;;;;3.02;1.35;;;;;;;14.35;55.24;99551.07;1697177;84;21596;-42
2022/06/15 00:46:37;;;;;;;3.87;1.57;;;;;;;14.34;55.42;99552.80;1697757;84;21017;-42
2022/06/15 00:49:09;;;;;;;3.45;1.55;;;;;;;14.31;55.78;99550.84;1697789;84;21064;-42
2022/06/15 00:51:36;;;;;;;4.10;1.85;;;;;;;14.29;56.08;99547.70;1697541;84;21041;-42
2022/06/15 00:54:03;;;;;;;3.65;1.70;;;;;;;14.28;55.84;99555.09;1669891;84;21040;-42
2022/06/15 00:56:31;;;;;;;3.33;1.65;;;;;;;14.27;55.59;99556.28;1697513;84;21076;-42
2022/06/15 00:59:08;;;;;;;3.65;1.40;;;;;;;14.25;55.59;99545.54;1697574;84;21574;-42
2022/06/15 01:01:37;;;;;;;4.10;1.72;;;;;;;14.25;55.76;99544.17;1697569;84;21042;-42
2022/06/15 01:04:04;;;;;;;4.47;1.82;;;;;;;14.22;55.74;99539.48;1697674;84;21218;-42
2022/06/15 01:06:47;;;;;;;4.53;1.90;;;;;;;14.17;55.81;99538.48;1697502;84;21060;-42
2022/06/15 01:09:26;;;;;;;4.45;1.62;;;;;;;14.14;55.95;99540.58;1697635;84;21529;-42
2022/06/15 01:12:25;;;;;;;4.40;1.98;;;;;;;14.12;56.04;99548.38;1697964;84;21558;-42
2022/06/15 01:15:01;;;;;;;3.92;1.57;;;;;;;14.10;56.10;99541.92;1697508;84;21033;-42
2022/06/15 01:17:55;;;;;;;4.10;1.60;;;;;;;14.06;56.20;99543.06;1697409;84;21607;-42
2022/06/15 01:20:47;;;;;;;4.12;1.62;;;;;;;14.01;56.23;99543.41;1697477;84;21024;-42
2022/06/15 01:23:31;;;;;;;2.80;1.80;;;;;;;13.99;56.29;99541.66;1697595;84;21013;-42
2022/06/15 01:26:45;;;;;;;3.83;1.70;;;;;;;13.91;56.43;99544.89;1697210;84;21007;-42
2022/06/15 01:29:46;;;;;;;5.47;1.77;;;;;;;13.88;56.62;99551.10;1697576;84;21040;-42
2022/06/15 01:32:32;;;;;;;3.45;1.67;;;;;;;13.82;56.90;99537.03;1697858;84;21571;-42
2022/06/15 01:35:23;;;;;;;3.22;1.50;;;;;;;13.78;57.30;99544.98;1697662;84;20997;-42
2022/06/15 01:38:19;;;;;;;6.08;1.92;;;;;;;13.74;57.38;99550.98;1697611;84;21661;-42
2022/06/15 01:40:38;;;;;;;4.37;1.70;;;;;;;13.70;57.69;99544.72;1697182;84;21012;-42
2022/06/15 01:43:08;;;;;;;;;;;;;;;13.66;57.90;99550.11;1700083;84;21586;-42
2022/06/15 01:45:36;;;;;;;3.98;1.70;;;;;;;13.66;57.89;99550.11;1697592;84;21137;-42
2022/06/15 01:48:07;;;;;;;3.12;1.85;;;;;;;13.55;58.43;99542.44;1697656;84;21024;-42
2022/06/15 01:50:41;;;;;;;2.67;1.80;;;;;;;13.58;58.59;99546.34;1682717;84;21064;-42
2022/06/15 01:53:38;;;;;;;3.77;1.35;;;;;;;13.57;58.32;99547.49;1610442;87;21108;-42
2022/06/15 01:56:35;;;;;;;2.77;1.30;;;;;;;13.41;58.90;99529.44;1636780;86;21606;-42
2022/06/15 01:59:19;;;;;;;4.15;1.47;;;;;;;13.52;58.82;99549.19;1624821;86;21244;-42
2022/06/15 02:01:52;;;;;;;3.62;1.65;;;;;;;13.46;58.60;99548.17;1622459;86;21564;-42
2022/06/15 02:04:45;;;;;;;5.30;1.60;;;;;;;13.43;58.89;99559.03;1651428;86;21033;-42
2022/06/15 02:07:38;;;;;;;3.98;1.60;;;;;;;13.43;58.91;99559.03;1651453;86;20989;-42
2022/06/15 02:10:44;;;;;;;3.40;1.98;;;;;;;13.39;59.26;99556.28;1622777;86;21030;-42
2022/06/15 02:13:29;;;;;;;2.25;1.30;;;;;;;13.40;59.55;99558.42;1623400;86;21524;-42
2022/06/15 02:16:08;;;;;;;3.52;1.67;;;;;;;13.43;59.83;99561.18;1651448;86;21527;-42
2022/06/15 02:18:35;;;;;;;2.47;1.67;;;;;;;13.52;59.83;99565.53;1650738;86;21547;-42
2022/06/15 02:21:08;;;;;;;5.53;1.90;;;;;;;13.58;59.88;99569.49;1650793;86;21037;-42
2022/06/15 02:23:37;;;;;;;4.85;1.45;;;;;;;13.59;59.75;99563.69;1673787;85;21054;-42
2022/06/15 02:26:04;;;;;;;6.75;1.70;;;;;;;13.63;59.92;99567.80;1625437;86;21126;-42
2022/06/15 02:28:35;;;;;;;4.70;1.95;;;;;;;13.63;59.60;99564.49;1688942;84;20943;-42
2022/06/15 02:31:02;;;;;;;4.50;1.80;;;;;;;13.63;59.82;99567.80;1706940;84;21543;-42
2022/06/15 02:33:33;;;;;;;2.87;1.82;;;;;;;13.61;59.63;99567.37;1707034;83;21007;-42
2022/06/15 02:36:03;;;;;;;3.98;1.70;;;;;;;13.60;59.37;99572.06;1679200;84;21046;-42
2022/06/15 02:38:31;;;;;;;6.25;2.10;;;;;;;13.61;59.58;99578.27;1707276;83;21167;-42
2022/06/15 02:40:58;;;;;;;3.98;1.87;;;;;;;13.60;59.36;99579.45;1707148;84;21029;-42
2022/06/15 02:43:29;;;;;;;3.30;1.10;;;;;;;13.58;59.51;99576.30;1707353;83;21120;-42
2022/06/15 02:45:59;;;;;;;6.65;2.10;;;;;;;13.57;59.56;99576.09;1707323;83;21041;-42
2022/06/15 02:48:28;;;;;;;3.65;1.60;;;;;;;13.57;59.69;99580.18;1707514;84;20994;-42
2022/06/15 02:51:20;;;;;;;4.03;1.57;;;;;;;13.55;59.86;99578.42;1707147;84;23192;-42
2022/06/15 02:53:50;;;;;;;3.10;1.42;;;;;;;13.54;59.85;99579.58;1706074;84;21040;-42
2022/06/15 02:56:19;;;;;;;3.10;1.40;;;;;;;13.55;60.42;99583.88;1706857;83;20993;-42
2022/06/15 02:58:48;;;;;;;2.45;1.40;;;;;;;13.64;60.24;99589.80;1707212;84;21029;-42
2022/06/15 03:01:16;;;;;;;3.12;1.60;;;;;;;13.75;60.36;99589.30;1707150;83;21599;-42
2022/06/15 03:03:44;;;;;;;1.95;1.25;;;;;;;13.92;60.23;99594.16;1707011;83;21882;-42
2022/06/15 03:06:18;;;;;;;4.22;1.50;;;;;;;13.98;59.77;99588.57;1706705;83;20942;-42
2022/06/15 03:08:46;;;;;;;2.95;1.50;;;;;;;14.00;59.52;99593.05;1706859;84;21582;-43
2022/06/15 03:11:18;;;;;;;4.05;1.40;;;;;;;14.01;59.83;99594.63;1706021;84;20970;-43
2022/06/15 03:13:46;;;;;;;3.98;1.70;;;;;;;14.03;59.69;99590.95;1706865;83;21093;-43
2022/06/15 03:16:14;;;;;;;3.83;1.57;;;;;;;14.07;59.70;99593.12;1706926;83;21160;-42
2022/06/15 03:18:43;;;;;;;2.98;1.55;;;;;;;14.11;59.49;99598.02;1706932;83;21030;-42
2022/06/15 03:21:10;;;;;;;2.77;1.30;;;;;;;14.13;59.70;99594.35;1707066;83;21543;-42
2022/06/15 03:23:37;;;;;;;3.70;1.60;;;;;;;14.17;59.49;99593.80;1707487;83;20998;-42
2022/06/15 03:26:05;;;;;;;5.37;1.40;;;;;;;14.17;59.29;99601.19;1707191;83;21040;-42
2022/06/15 03:28:34;;;;;;;2.92;1.35;;;;;;;14.14;59.20;99600.56;1707114;83;20983;-43
2022/06/15 03:31:02;;;;;;;3.35;1.40;;;;;;;14.11;59.46;99604.84;1707020;84;21041;-42
2022/06/15 03:33:30;;;;;;;5.50;1.70;;;;;;;14.10;60.10;99608.72;1706924;83;21061;-43
2022/06/15 03:35:58;;;;;;;6.45;1.40;;;;;;;14.13;59.90;99608.56;1706830;84;21548;-42
2022/06/15 03:38:28;;;;;;;4.97;1.70;;;;;;;14.18;59.81;99610.36;1707018;84;21564;-43
2022/06/15 03:40:57;;;;;;;2.02;1.37;;;;;;;14.29;59.58;99620.76;1699695;84;21246;-43
2022/06/15 03:43:24;;;;;;;5.05;1.35;;;;;;;14.42;59.60;99615.84;1706650;84;20969;-42
2022/06/15 03:45:51;;;;;;;2.87;1.55;;;;;;;14.50;59.16;99620.17;1706917;83;21500;-43
2022/06/15 03:48:19;;;;;;;2.60;1.50;;;;;;;14.58;58.83;99619.05;1706935;84;21120;-43
2022/06/15 03:50:46;;;;;;;2.52;1.50;;;;;;;14.63;58.41;99624.73;1707057;83;21844;-43
2022/06/15 03:53:13;;;;;;;4.83;1.55;;;;;;;14.65;58.25;99625.15;1706885;84;21865;-42
2022/06/15 03:55:43;;;;;;;6.08;1.32;;;;;;;14.65;58.03;99625.15;1706677;84;21511;-43
2022/06/15 03:58:13;;;;;;;2.60;1.40;;;;;;;14.63;58.14;99619.27;1706891;84;21571;-42
2022/06/15 04:00:41;;;;;;;4.55;1.45;;;;;;;14.62;58.06;99630.77;1707383;84;21583;-42
2022/06/15 04:03:10;;;;;;;4.12;1.60;;;;;;;14.61;58.31;99635.27;1706913;83;21564;-42
2022/06/15 04:05:52;;;;;;;2.92;1.50;;;;;;;14.58;58.08;99642.24;1690904;84;23158;-43
2022/06/15 04:08:37;;;;;;;4.03;1.50;;;;;;;14.55;57.82;99637.56;1706810;84;20969;-43
2022/06/15 04:14:01;;;;;;;6.60;1.87;;;;;;;14.57;58.84;99645.38;1707040;83;21045;-42
2022/06/15 04:16:30;;;;;;;3.55;1.85;;;;;;;14.59;58.75;99643.81;1707240;83;21021;-42
2022/06/15 04:19:02;;;;;;;4.42;1.52;;;;;;;14.63;58.86;99642.47;1677782;84;21173;-42
2022/06/15 04:21:27;;;;;;;6.15;1.67;;;;;;;14.66;58.55;99643.87;1706576;84;20949;-43
2022/06/15 04:23:55;;;;;;;6.22;1.82;;;;;;;14.69;58.39;99643.69;1707100;84;20942;-43
2022/06/15 04:26:22;;;;;;;3.87;1.65;;;;;;;14.70;58.33;99637.08;1707438;84;21578;-43
2022/06/15 04:28:49;;;;;;;3.67;1.37;;;;;;;14.70;58.39;99643.32;1711209;83;21057;-43
2022/06/15 04:31:21;;;;;;;2.58;1.47;;;;;;;14.73;58.41;99641.77;1712503;83;21098;-43
2022/06/15 04:33:48;;;;;;;3.30;1.50;;;;;;;14.75;58.71;99643.54;1712552;83;21049;-43
2022/06/15 04:36:15;;;;;;;3.00;1.60;;;;;;;14.79;58.66;99634.79;1712632;83;20954;-43
2022/06/15 04:38:44;;;;;;;8.08;1.92;;;;;;;14.85;58.48;99641.47;1712015;83;21089;-43
2022/06/15 04:41:11;;;;;;;4.47;1.70;;;;;;;14.87;58.49;99643.22;1712534;83;21595;-43
2022/06/15 04:43:39;;;;;;;3.37;1.55;;;;;;;14.92;58.81;99640.70;1712380;83;21156;-43
2022/06/15 04:46:07;;;;;;;3.12;1.60;;;;;;;14.98;58.39;99646.80;1711655;83;21503;-43
2022/06/15 04:48:35;;;;;;;4.15;1.60;;;;;;;15.02;58.25;99646.23;1712728;83;20996;-43
2022/06/15 04:51:22;;;;;;;4.78;1.92;;;;;;;15.02;58.33;99653.05;1712548;83;20962;-43
2022/06/15 04:53:52;;;;;;;3.22;1.67;;;;;;;15.01;58.56;99650.70;1712790;83;21018;-43
2022/06/15 04:56:20;;;;;;;2.65;1.70;;;;;;;15.02;58.52;99643.50;1712501;83;21122;-43
2022/06/15 04:58:47;;;;;;;5.55;1.98;;;;;;;15.09;58.67;99650.37;1712662;83;20962;-43
2022/06/15 05:01:15;;;;;;;3.52;1.40;;;;;;;15.22;58.44;99649.45;1712455;83;21088;-43
2022/06/15 05:03:43;;;;;;;3.25;1.47;;;;;;;15.33;58.47;99646.77;1712255;83;21559;-43
2022/06/15 05:06:31;;;;;;;2.62;1.70;;;;;;;15.44;57.87;99650.34;1712359;83;21093;-43
2022/06/15 05:08:58;;;;;;;3.80;1.67;;;;;;;15.54;57.26;99649.02;1712651;83;22078;-43
2022/06/15 05:11:28;;;;;;;3.83;1.70;;;;;;;15.56;57.48;99651.37;1712304;83;21006;-43
2022/06/15 05:13:55;;;;;;;3.47;1.70;;;;;;;15.61;57.81;99651.00;1712648;83;20981;-43
2022/06/15 05:16:24;;;;;;;5.28;1.82;;;;;;;15.70;57.56;99654.73;1712900;83;21660;-43
2022/06/15 05:18:52;;;;;;;3.00;1.57;;;;;;;15.81;57.60;99651.45;1712545;83;21101;-43
2022/06/15 05:21:22;;;;;;;4.75;1.57;;;;;;;15.94;57.29;99656.16;1712388;83;21113;-43
2022/06/15 05:23:49;;;;;;;4.15;1.40;;;;;;;16.01;56.77;99654.82;1712414;83;21047;-43
2022/06/15 05:26:18;;;;;;;7.70;1.42;;;;;;;16.07;56.57;99662.82;1711877;83;21096;-43
2022/06/15 05:28:46;;;;;;;3.80;1.27;;;;;;;16.14;56.33;99659.91;1712406;83;21492;-43
2022/06/15 05:31:18;;;;;;;4.53;1.40;;;;;;;16.17;56.10;99661.27;1712692;83;21084;-43
2022/06/15 05:33:53;;;;;;;3.40;1.67;;;;;;;16.22;56.36;99665.57;1712472;83;21511;-43
2022/06/15 05:36:19;;;;;;;4.28;1.70;;;;;;;16.27;55.78;99661.08;1712427;83;21029;-43
2022/06/15 05:38:46;;;;;;;4.55;1.47;;;;;;;16.33;55.60;99663.63;1712407;83;21049;-43
2022/06/15 05:42:58;;;;;;;3.17;1.55;;;;;;;16.51;55.43;99669.88;1814718;79;22407;-42
2022/06/15 05:45:29;;;;;;;4.87;1.55;;;;;;;16.49;55.59;99670.88;1788033;80;21003;-42
2022/06/15 05:47:57;;;;;;;4.30;1.35;;;;;;;16.56;54.64;99668.70;1788303;80;21543;-42
2022/06/15 05:50:26;;;;;;;4.17;1.60;;;;;;;16.56;54.31;99667.34;1786243;80;20952;-42
2022/06/15 05:52:55;;;;;;;6.62;1.80;;;;;;;16.52;54.32;99664.02;1786917;80;21032;-42
2022/06/15 05:55:25;;;;;;;5.33;1.80;;;;;;;16.48;54.63;99664.62;1772239;80;21012;-42
2022/06/15 05:57:51;;;;;;;5.90;1.80;;;;;;;16.50;54.72;99667.76;1788128;80;20937;-42
2022/06/15 06:00:23;;;;;;;4.22;1.67;;;;;;;16.56;54.56;99665.38;1787998;80;22042;-43
2022/06/15 06:02:50;;;;;;;2.83;1.40;;;;;;;16.60;54.72;99665.44;1787996;80;20964;-43
2022/06/15 06:05:17;;;;;;;5.28;1.77;;;;;;;16.61;53.77;99675.97;1787998;80;20996;-42
2022/06/15 06:07:44;;;;;;;5.28;1.75;;;;;;;16.65;54.13;99671.89;1787809;80;20929;-43
2022/06/15 06:10:11;;;;;;;3.67;1.80;;;;;;;16.72;53.88;99668.54;1787868;80;21037;-43
2022/06/15 06:12:40;;;;;;;6.22;1.80;;;;;;;16.83;54.32;99667.16;1757362;80;21041;-43
2022/06/15 06:15:09;;;;;;;3.20;1.55;;;;;;;16.89;52.97;99668.34;1787572;80;20913;-43
2022/06/15 06:17:37;;;;;;;5.00;1.70;;;;;;;16.98;52.48;99669.29;1787759;80;21025;-43
2022/06/15 06:20:08;;;;;;;6.90;1.77;;;;;;;17.03;52.21;99666.94;1787795;80;21491;-43
2022/06/15 06:22:35;;;;;;;3.47;1.20;;;;;;;17.05;51.44;99669.26;1788122;80;20984;-43
2022/06/15 06:25:04;;;;;;;3.85;1.77;;;;;;;17.08;51.70;99665.75;1787780;80;21238;-42
2022/06/15 06:27:34;;;;;;;3.77;1.22;;;;;;;17.14;52.72;99677.84;1787699;80;20976;-43
2022/06/15 06:30:04;;;;;;;4.65;1.60;;;;;;;17.22;51.68;99666.49;1787927;80;20999;-43
2022/06/15 06:32:31;;;;;;;4.70;1.50;;;;;;;17.35;52.14;99665.45;1787950;80;20965;-42
2022/06/15 06:34:58;;;;;;;5.92;1.50;;;;;;;17.49;51.88;99665.40;1787938;80;20956;-43
2022/06/15 06:37:25;;;;;;;5.12;1.70;;;;;;;17.63;51.17;99658.52;1787888;80;21443;-42
2022/06/15 06:39:55;;;;;;;6.72;1.70;;;;;;;17.73;50.28;99656.30;1787796;80;21004;-42
2022/06/15 06:42:22;;;;;;;4.70;1.67;;;;;;;17.82;51.06;99666.83;1784710;80;21015;-42
2022/06/15 06:44:51;;;;;;;4.05;1.30;;;;;;;17.92;50.65;99661.88;1783090;80;21034;-43
2022/06/15 06:47:19;;;;;;;3.27;1.40;;;;;;;18.07;49.42;99668.84;1782938;80;20922;-42
2022/06/15 06:49:48;;;;;;;2.25;1.10;;;;;;;18.18;48.67;99670.14;1782981;80;21139;-42
2022/06/15 06:52:15;;;;;;;3.80;1.40;;;;;;;18.28;48.48;99670.66;1782824;80;21093;-42
2022/06/15 06:54:42;;;;;;;3.90;1.30;;;;;;;18.38;48.26;99667.06;1782192;80;21505;-42
2022/06/15 06:57:10;;;;;;;2.27;0.90;;;;;;;18.52;47.88;99668.31;1782277;80;20968;-42
2022/06/15 06:59:38;;;;;;;4.85;1.45;;;;;;;18.65;47.09;99663.91;1782189;80;21029;-43
2022/06/15 07:02:05;;;;;;;3.62;1.40;;;;;;;18.71;46.74;99671.71;1782187;80;23163;-43
2022/06/15 07:04:34;;;;;;;2.05;1.10;;;;;;;18.75;46.37;99663.63;1782213;80;20928;-43
2022/06/15 07:07:01;;;;;;;5.70;1.42;;;;;;;18.86;46.74;99673.92;1782222;80;20958;-42
2022/06/15 07:09:29;;;;;;;5.50;1.20;;;;;;;18.98;46.30;99660.25;1782294;80;20925;-43
2022/06/15 07:11:57;;;;;;;4.10;1.27;;;;;;;19.10;45.74;99657.78;1782211;80;21491;-43
2022/06/15 07:14:24;;;;;;;2.33;1.02;;;;;;;19.27;46.32;99662.09;1782140;80;21146;-43
2022/06/15 07:16:52;;;;;;;3.30;1.25;;;;;;;19.47;45.42;99672.09;1782032;80;21484;-42
2022/06/15 07:19:19;;;;;;;3.10;1.22;;;;;;;19.42;44.06;99665.64;1782313;80;22012;-42
2022/06/15 07:21:46;;;;;;;3.50;1.30;;;;;;;19.22;44.78;99661.95;1782355;80;21531;-43
2022/06/15 07:24:13;;;;;;;2.47;1.20;;;;;;;19.06;44.47;99668.03;1782373;80;21570;-43
2022/06/15 07:26:43;;;;;;;3.80;1.20;;;;;;;18.99;44.47;99671.43;1782468;80;21094;-42
2022/06/15 07:29:13;;;;;;;1.57;1.05;;;;;;;19.01;45.00;99669.06;1782375;80;21020;-43
2022/06/15 07:31:44;;;;;;;2.77;1.30;;;;;;;19.11;45.40;99661.31;1782822;80;20972;-43
2022/06/15 07:34:11;;;;;;;2.52;1.22;;;;;;;19.20;44.34;99671.22;1782300;80;20961;-42
2022/06/15 07:36:46;;;;;;;2.40;1.30;;;;;;;19.12;43.00;99659.34;1782613;80;21017;-42
2022/06/15 07:39:17;;;;;;;3.45;1.50;;;;;;;19.09;44.18;99663.67;1782158;80;21936;-43
2022/06/15 07:41:45;;;;;;;3.83;1.40;;;;;;;19.16;43.76;99660.08;1777431;80;21763;-43
2022/06/15 07:44:13;;;;;;;2.67;1.40;;;;;;;19.22;43.76;99660.58;1773638;80;20965;-43
2022/06/15 07:46:40;;;;;;;5.65;1.00;;;;;;;19.32;43.18;99653.39;1773600;80;21013;-43
2022/06/15 07:51:58;;;;;;;2.90;1.07;;;;;;;19.44;42.21;99666.05;1773731;80;21823;-43
2022/06/15 07:54:25;;;;;;;1.57;0.93;;;;;;;19.43;42.26;99659.55;1773568;80;20970;-43
2022/06/15 07:56:53;;;;;;;3.30;1.35;;;;;;;19.45;42.85;99656.63;1773623;80;21016;-43
2022/06/15 07:59:22;;;;;;;3.47;0.82;;;;;;;19.55;43.54;99659.64;1773641;80;20997;-43
2022/06/15 08:01:49;;;;;;;2.15;0.90;;;;;;;19.60;41.74;99657.81;1773754;80;21017;-43
2022/06/15 08:04:18;;;;;;;3.02;1.00;;;;;;;19.59;42.69;99657.63;1773768;80;20969;-43
2022/06/15 08:06:47;;;;;;;1.42;0.90;;;;;;;19.65;42.31;99655.98;1773904;80;21006;-43
2022/06/15 08:09:15;;;;;;;4.85;1.22;;;;;;;19.66;41.94;99657.52;1773998;80;21021;-43
2022/06/15 08:12:11;;;;;;;1.57;0.95;;;;;;;19.59;41.41;99662.53;1774020;80;21464;-42
2022/06/15 08:14:12;;;;;;;2.37;1.00;;;;;;;19.56;41.81;99668.84;1770843;80;21024;-43
2022/06/15 08:16:41;;;;;;;2.47;0.95;;;;;;;19.64;41.85;99656.57;1773724;80;21012;-43
2022/06/15 08:19:08;;;;;;;2.37;0.90;;;;;;;19.86;41.87;99648.80;1773626;80;20922;-43
2022/06/15 08:21:36;;;;;;;2.17;1.00;;;;;;;19.99;41.47;99655.31;1727396;80;21531;-43
2022/06/15 08:24:03;;;;;;;1.92;1.20;;;;;;;20.00;41.48;99660.97;1751484;80;20968;-43
2022/06/15 08:26:35;;;;;;;2.30;1.02;;;;;;;19.98;41.20;99659.25;1773570;80;21083;-43
2022/06/15 08:29:05;;;;;;;2.27;0.80;;;;;;;20.10;41.49;99659.25;1773672;80;21314;-43
2022/06/15 08:31:32;;;;;;;1.90;1.00;;;;;;;20.26;41.21;99649.17;1751896;80;22098;-43
2022/06/15 08:34:00;;;;;;;2.77;1.00;;;;;;;20.43;40.01;99659.73;1773580;80;21035;-42
2022/06/15 08:36:27;;;;;;;2.22;1.10;;;;;;;20.47;39.99;99668.75;1768757;80;21030;-43
2022/06/15 08:38:56;;;;;;;2.33;1.10;;;;;;;20.54;40.19;99662.33;1773522;80;21504;-42
2022/06/15 08:41:51;;;;;;;2.60;0.83;;;;;;;20.61;39.85;99656.71;1773710;80;23151;-43
2022/06/15 08:44:36;;;;;;;3.58;1.10;;;;;;;20.57;38.56;99662.29;1773091;80;21540;-43
2022/06/15 08:47:32;;;;;;;1.75;0.90;;;;;;;20.48;39.40;99654.38;1773600;80;21008;-42
2022/06/15 08:50:17;;;;;;;3.12;1.07;;;;;;;20.53;39.45;99655.25;1773614;80;21570;-43
2022/06/15 08:53:09;;;;;;;4.12;1.12;;;;;;;20.55;39.96;99661.13;1773945;80;21049;-43
2022/06/15 08:55:41;;;;;;;2.58;0.90;;;;;;;20.45;39.82;99661.48;1773777;80;21563;-43
2022/06/15 08:58:35;;;;;;;2.22;1.20;;;;;;;20.25;39.76;99664.13;1773608;80;21004;-42
2022/06/15 09:01:10;;;;;;;3.30;1.10;;;;;;;20.19;39.96;99658.13;1745622;80;20989;-43
2022/06/15 09:04:13;;;;;;;3.35;1.10;;;;;;;20.34;40.27;99653.39;1773596;80;21599;-42
2022/06/15 09:07:20;;;;;;;3.25;1.10;;;;;;;20.55;38.72;99653.66;1773398;80;21068;-42
2022/06/15 09:10:27;;;;;;;4.50;1.35;;;;;;;20.70;38.49;99648.67;1765936;80;21244;-43
2022/06/15 09:13:39;;;;;;;5.90;1.17;;;;;;;20.75;39.34;99649.57;1768224;80;21000;-43
2022/06/15 09:16:56;;;;;;;1.95;1.05;;;;;;;20.86;39.26;99652.92;1773560;80;21511;-43
2022/06/15 09:19:28;;;;;;;2.72;1.00;;;;;;;20.91;37.82;99660.70;1773458;80;21060;-42
2022/06/15 09:22:06;;;;;;;4.25;1.27;;;;;;;20.92;37.83;99649.84;1773551;80;21575;-43
2022/06/15 09:24:47;;;;;;;2.47;0.90;;;;;;;21.00;36.88;99644.98;1752944;80;21061;-43
2022/06/15 09:27:14;;;;;;;2.45;0.90;;;;;;;21.10;37.31;99651.68;1772885;80;20972;-43
2022/06/15 09:29:52;;;;;;;2.42;0.90;;;;;;;21.23;36.06;99633.33;1773623;80;21021;-43
2022/06/15 09:32:40;;;;;;;2.98;1.10;;;;;;;21.41;37.02;99637.69;1773360;80;20968;-42
2022/06/15 09:35:17;;;;;;;2.92;0.88;;;;;;;21.61;36.09;99631.55;1772307;80;21382;-43
2022/06/15 09:37:52;;;;;;;2.52;1.05;;;;;;;21.68;36.12;99641.07;1773620;80;21124;-43
2022/06/15 09:40:19;;;;;;;2.40;1.10;;;;;;;21.56;36.02;99641.11;1773673;80;21497;-43
2022/06/15 09:43:16;;;;;;;1.42;0.72;;;;;;;21.44;36.15;99643.75;1773679;80;21036;-43
2022/06/15 09:45:49;;;;;;;2.83;0.95;;;;;;;21.41;34.77;99637.69;1773814;80;21033;-43
2022/06/15 09:48:21;;;;;;;2.10;0.90;;;;;;;21.48;35.71;99638.94;1773057;80;20994;-43
2022/06/15 09:50:54;;;;;;;4.00;1.05;;;;;;;21.65;35.50;99630.27;1774156;80;21235;-43
2022/06/15 09:53:48;;;;;;;2.37;0.72;;;;;;;21.81;35.52;99624.02;1773858;80;21072;-42
2022/06/15 09:56:17;;;;;;;1.52;1.00;;;;;;;21.92;35.38;99624.55;1688139;85;21039;-42
2022/06/15 09:58:54;;;;;;;;;;;;;;;22.01;35.68;99631.67;1754748;80;21025;-43
2022/06/15 10:01:24;;;;;;;2.08;0.80;;;;;;;22.05;35.01;99622.70;1773580;80;20161;-43
2022/06/15 10:03:55;;;;;;;2.17;1.00;;;;;;;22.02;35.79;99620.80;1773670;80;21231;-43
2022/06/15 10:06:29;;;;;;;1.52;0.78;;;;;;;22.10;34.59;99632.45;1773664;80;21009;-43
2022/06/15 10:08:57;;;;;;;0.98;0.72;;;;;;;22.21;35.92;99628.05;1773513;80;21037;-42
2022/06/15 10:11:44;;;;;;;2.02;0.70;;;;;;;22.43;34.00;99624.92;1773672;80;21468;-43
2022/06/15 10:14:32;;;;;;;0.80;0.68;;;;;;;22.70;33.17;99623.27;1773455;80;21190;-43
2022/06/15 10:17:04;;;;;;;2.40;0.80;;;;;;;22.93;33.04;99621.08;1773629;80;21139;-43
2022/06/15 10:19:33;;;;;;;1.27;0.93;;;;;;;23.14;32.13;99622.45;1773466;80;21239;-43
2022/06/15 10:22:04;;;;;;;2.60;1.20;;;;;;;23.20;32.34;99614.41;1774085;80;21020;-43
2022/06/15 10:24:37;;;;;;;3.83;1.10;;;;;;;23.08;32.84;99607.64;1768700;80;20970;-43
2022/06/15 10:27:37;;;;;;;3.37;1.50;;;;;;;22.91;32.54;99611.66;1773960;80;20961;-43
2022/06/15 10:30:12;;;;;;;0.90;0.70;;;;;;;22.88;33.79;99610.55;1772612;80;21144;-43
2022/06/15 10:33:01;;;;;;;2.87;0.80;;;;;;;23.02;32.59;99612.75;1773848;80;21036;-43
2022/06/15 10:35:31;;;;;;;1.32;0.88;;;;;;;23.13;31.57;99625.08;1773756;80;20994;-43
2022/06/15 10:38:02;;;;;;;0.80;0.68;;;;;;;23.18;31.91;99611.31;1773728;80;21034;-43
2022/06/15 10:40:35;;;;;;;1.92;0.70;;;;;;;23.24;31.96;99620.00;1773849;80;21558;-43
2022/06/15 10:43:16;;;;;;;1.65;0.85;;;;;;;23.37;32.89;99609.76;1773894;80;21789;-43
2022/06/15 10:46:00;;;;;;;2.30;0.80;;;;;;;23.62;31.51;99610.44;1773863;80;21016;-43
2022/06/15 10:48:46;;;;;;;1.02;0.70;;;;;;;23.85;30.96;99609.94;1773712;80;21017;-43
2022/06/15 10:51:35;;;;;;;2.05;0.80;;;;;;;24.02;31.59;99605.81;1773851;80;20986;-43
2022/06/15 10:54:31;;;;;;;2.10;0.80;;;;;;;23.89;31.00;99553.83;1774207;80;20925;-43
2022/06/15 11:03:17;;;;;;;1.37;0.65;;;;;;;24.75;29.67;99603.80;1773662;80;20894;-43
2022/06/15 11:05:46;;;;;;;1.77;0.80;;;;;;;24.57;29.15;99601.66;1774024;80;21037;-43
2022/06/15 11:08:20;;;;;;;3.08;0.90;;;;;;;24.36;28.98;99604.53;1773683;80;20953;-43
2022/06/15 11:10:51;;;;;;;2.72;0.78;;;;;;;24.11;29.95;99605.92;1773901;80;21076;-43
2022/06/15 11:13:40;;;;;;;2.65;0.90;;;;;;;23.97;30.86;99598.06;1773412;80;21555;-43
2022/06/15 11:19:18;;;;;;;2.50;0.82;;;;;;;23.48;31.61;99609.45;1773836;80;21052;-43
2022/06/15 11:21:59;;;;;;;3.52;1.00;;;;;;;23.10;32.37;99603.81;1773864;80;21032;-43
2022/06/15 11:24:45;;;;;;;1.60;0.90;;;;;;;23.07;32.77;99608.06;1773089;80;21137;-43
2022/06/15 11:27:25;;;;;;;1.47;0.60;;;;;;;23.19;33.45;99600.42;1768583;80;21020;-43
2022/06/15 11:30:10;;;;;;;1.12;0.70;;;;;;;23.62;32.39;99597.98;1772721;80;21033;-43
2022/06/15 11:32:51;;;;;;;2.25;1.00;;;;;;;24.06;31.14;99590.63;1773817;80;21001;-43
2022/06/15 11:35:41;;;;;;;5.67;0.78;;;;;;;24.37;30.12;99590.06;1761183;80;21056;-43
2022/06/15 11:38:48;;;;;;;2.58;0.78;;;;;;;24.72;30.32;99590.84;1773951;80;21130;-43
2022/06/15 11:41:20;;;;;;;3.77;0.80;;;;;;;25.13;29.19;99589.17;1772357;80;20995;-43
2022/06/15 11:43:50;;;;;;;3.00;0.88;;;;;;;25.17;29.43;99587.67;1773613;80;20949;-43
2022/06/15 11:46:47;;;;;;;2.60;0.80;;;;;;;24.99;29.58;99588.30;1773976;80;20929;-43
2022/06/15 11:49:22;;;;;;;1.10;0.70;;;;;;;24.85;29.82;99594.33;1773353;80;21536;-43
2022/06/15 11:52:28;;;;;;;0.72;0.57;;;;;;;24.72;28.90;99590.23;1773390;80;21205;-43
2022/06/15 11:55:33;;;;;;;1.87;0.53;;;;;;;24.65;29.76;99585.70;1779233;80;21786;-43
2022/06/15 11:58:30;;;;;;;4.92;0.70;;;;;;;24.74;28.89;99580.84;1756006;80;21022;-43
2022/06/15 12:01:15;;;;;;;4.00;1.02;;;;;;;25.07;29.74;99577.91;1779157;80;21009;-43
2022/06/15 12:04:22;;;;;;;3.98;0.60;;;;;;;25.64;28.63;99583.32;1778677;80;21041;-43
2022/06/15 12:07:04;;;;;;;1.80;0.85;;;;;;;25.72;28.11;99580.41;1778727;80;21121;-43
2022/06/15 12:09:57;;;;;;;2.52;0.90;;;;;;;25.62;27.99;99582.99;1778968;80;20985;-43
2022/06/15 12:12:53;;;;;;;2.80;0.78;;;;;;;25.58;28.30;99581.75;1779046;80;21029;-43
2022/06/15 12:15:34;;;;;;;0.95;0.65;;;;;;;25.79;29.07;99578.15;1778780;80;21024;-43
2022/06/15 12:18:16;;;;;;;1.47;0.90;;;;;;;25.87;28.19;99575.84;1779187;80;21036;-43
2022/06/15 12:21:06;;;;;;;3.85;0.82;;;;;;;25.74;28.43;99576.58;1773833;80;21884;-43
2022/06/15 12:24:22;;;;;;;1.60;0.78;;;;;;;25.52;29.13;99577.38;1778986;80;20937;-43
2022/06/15 12:27:19;;;;;;;1.82;0.80;;;;;;;25.15;29.24;99577.02;1779037;80;21004;-43